SMZO/ORG METAR and TAF weather

Enter ICAO airport designator
Station Type Date Time Source
SMZO METAR 2018/12/11 19:00 UTC NOAA

SMZO 111900Z 03004KT 9999 -RA SCT008 BKN020 25/23 Q1013 NOSIG


Station Type Date Time Source
SMZO Decoded METAR 2018/12/11 19:00 UTC NOAA

Station name not available
Dec 11, 2018 - 02:00 PM EST / 2018.12.11 1900 UTC
Wind: from the NNE (030 degrees) at 5 MPH (4 KT):0
Visibility: greater than 7 mile(s):0
Sky conditions: mostly cloudy
Weather: light rain
Temperature: 77 F (25 C)
Dew Point: 73 F (23 C)
Relative Humidity: 88%
Pressure (altimeter): 29.91 in. Hg (1013 hPa)
ob: SMZO 111900Z 03004KT 9999 -RA SCT008 BKN020 25/23 Q1013 NOSIG
cycle: 19

Station Type Date Time Source
SMZO TAF 2018/12/11 18:18 UTC NOAA

TAF TAF SMZO 111600Z 1118/1218 07010KT 9999 FEW010 SCT020 TX301118Z TN23/1209Z
TEMPO 1118/1121 VRB12G22KT 4000 SHRA FEW015CB BKN018
BECMG 1122/1200 04005KT FEW010 SCT030 PROB30
TEMPO 1200/1202 5000 SHRA BKN018
FM121200 06008KT 9999 SCT020
TEMPO 1215/1218 VRB12G22KT 5000 SHRA FEW015TCU SCT018


Example: see airport list